createdAt,value
2017-05-12T00:00:40.102Z,66.33
2017-05-12T00:01:50.459Z,66.52
2017-05-12T00:03:00.494Z,66.61
2017-05-12T00:04:10.876Z,66.9
2017-05-12T00:05:21.214Z,67.29
2017-05-12T00:06:31.560Z,66.52
2017-05-12T00:07:41.962Z,66.61
2017-05-12T00:08:52.306Z,66.61
2017-05-12T00:10:02.351Z,66.71
2017-05-12T00:11:12.693Z,66.71
2017-05-12T00:12:22.432Z,66.9
2017-05-12T00:13:32.479Z,66.71
2017-05-12T00:14:42.836Z,66.9
2017-05-12T00:15:52.873Z,66.61
2017-05-12T00:17:03.226Z,67.09
2017-05-12T00:18:13.580Z,66.61
2017-05-12T00:19:23.918Z,66.42
2017-05-12T00:20:33.949Z,66.71
2017-05-12T00:21:43.683Z,67.25
2017-05-12T00:22:53.721Z,66.49
2017-05-12T00:24:03.768Z,66.77
2017-05-12T00:25:13.798Z,66.52
2017-05-12T00:26:24.136Z,66.67
2017-05-12T00:27:33.865Z,66.67
2017-05-12T00:28:44.213Z,67.06
2017-05-12T00:29:54.595Z,66.96
2017-05-12T00:31:04.948Z,66.9
2017-05-12T00:32:14.979Z,66.77
2017-05-12T00:33:25.327Z,67.16
2017-05-12T00:34:35.669Z,66.71
2017-05-12T00:35:45.394Z,67.06
2017-05-12T00:36:55.474Z,67.06
2017-05-12T00:38:05.812Z,66.86
2017-05-12T00:39:15.850Z,66.86
2017-05-12T00:40:26.189Z,67.06
2017-05-12T00:41:36.229Z,67.06
2017-05-12T00:42:46.626Z,66.77
2017-05-12T00:43:56.667Z,66.77
2017-05-12T00:45:07.023Z,66.86
2017-05-12T00:46:17.057Z,66.67
2017-05-12T00:47:26.794Z,66.67
2017-05-12T00:48:36.829Z,66.77
2017-05-12T00:49:46.861Z,66.86
2017-05-12T00:50:56.890Z,66.67
2017-05-12T00:52:06.599Z,66.86
2017-05-12T00:53:16.947Z,66.83
2017-05-12T00:54:27.292Z,67.02
2017-05-12T00:55:37.322Z,66.93
2017-05-12T00:56:47.373Z,67.02
2017-05-12T00:57:57.406Z,67.02
2017-05-12T00:59:07.518Z,66.64
2017-05-12T01:00:17.863Z,67.02
2017-05-12T01:01:28.209Z,66.83
2017-05-12T01:02:38.555Z,67.02
2017-05-12T01:03:48.895Z,66.74
2017-05-12T01:04:59.250Z,66.55
2017-05-12T01:06:09.614Z,66.93
2017-05-12T01:07:19.964Z,66.83
2017-05-12T01:08:30.311Z,66.64
2017-05-12T01:09:40.684Z,66.74
2017-05-12T01:10:50.734Z,67.02
2017-05-12T01:12:00.451Z,66.55
2017-05-12T01:13:10.823Z,67.02
2017-05-12T01:14:21.184Z,66.64
2017-05-12T01:15:31.266Z,66.64
2017-05-12T01:16:41.635Z,66.64
2017-05-12T01:17:51.675Z,66.45
2017-05-12T01:19:02.051Z,66.45
2017-05-12T01:20:12.454Z,66.83
2017-05-12T01:21:22.822Z,66.35
2017-05-12T01:22:33.187Z,66.45
2017-05-12T01:23:43.235Z,66.35
2017-05-12T01:24:53.609Z,66.64
2017-05-12T01:26:03.646Z,66.45
2017-05-12T01:27:13.699Z,66.35
2017-05-12T01:28:24.045Z,66.64
2017-05-12T01:29:34.395Z,66.64
2017-05-12T01:30:44.441Z,66.55
2017-05-12T01:31:54.163Z,66.55
2017-05-12T01:33:04.203Z,66.45
2017-05-12T01:34:14.249Z,66.64
2017-05-12T01:35:24.604Z,66.32
2017-05-12T01:36:34.952Z,66.61
2017-05-12T01:37:44.995Z,66.45
2017-05-12T01:38:55.349Z,65.75
2017-05-12T01:40:05.722Z,66.06
2017-05-12T01:41:16.065Z,66.06
2017-05-12T01:42:26.401Z,66.06
2017-05-12T01:43:36.782Z,65.94
2017-05-12T01:44:47.132Z,65.94
2017-05-12T01:45:57.474Z,65.88
2017-05-12T01:47:07.834Z,65.94
2017-05-12T01:48:17.881Z,66.13
2017-05-12T01:49:27.921Z,66.03
2017-05-12T01:50:38.285Z,66.13
2017-05-12T01:51:48.346Z,66.22
2017-05-12T01:52:58.373Z,65.84
2017-05-12T01:54:08.428Z,65.94
2017-05-12T01:55:18.810Z,66.13
2017-05-12T01:56:29.166Z,66.22
2017-05-12T01:57:39.209Z,66.22
2017-05-12T01:58:49.608Z,66.51
2017-05-12T01:59:59.967Z,66.51
2017-05-12T02:01:10.337Z,66.48
2017-05-12T02:02:20.684Z,66.09
2017-05-12T02:03:31.030Z,66.22
2017-05-12T02:04:41.380Z,66.22
2017-05-12T02:05:51.736Z,66.38
2017-05-12T02:07:01.778Z,65.84
2017-05-12T02:08:12.135Z,66.51
2017-05-12T02:09:22.158Z,66.58
2017-05-12T02:10:32.504Z,66.29
2017-05-12T02:11:42.856Z,66.58
2017-05-12T02:12:52.933Z,66.58
2017-05-12T02:14:02.982Z,66.58
2017-05-12T02:15:13.323Z,66.19
2017-05-12T02:16:23.721Z,66.38
2017-05-12T02:17:34.068Z,66.19
2017-05-12T02:18:44.408Z,66.58
2017-05-12T02:19:54.774Z,65.71
2017-05-12T02:21:05.133Z,66
2017-05-12T02:22:15.503Z,65.71
2017-05-12T02:23:25.848Z,66.29
2017-05-12T02:24:35.883Z,66.29
2017-05-12T02:25:46.269Z,66.48
2017-05-12T02:26:56.624Z,65.81
2017-05-12T02:28:06.709Z,65.71
2017-05-12T02:29:17.068Z,65.91
2017-05-12T02:30:27.425Z,65.62
2017-05-12T02:31:37.781Z,65.71
2017-05-12T02:32:48.139Z,66.48
2017-05-12T02:33:58.500Z,65.81
2017-05-12T02:35:08.844Z,65.91
2017-05-12T02:36:19.204Z,66
2017-05-12T02:37:29.234Z,66.09
2017-05-12T02:38:39.277Z,66.09
2017-05-12T02:39:49.309Z,66
2017-05-12T02:40:59.359Z,66
2017-05-12T02:42:09.726Z,66.09
2017-05-12T02:43:20.067Z,66
2017-05-12T02:44:30.112Z,66
2017-05-12T02:45:40.520Z,66.09
2017-05-12T02:46:50.896Z,66
2017-05-12T02:48:01.252Z,66.19
2017-05-12T02:49:11.603Z,66.48
2017-05-12T02:50:21.956Z,65.81
2017-05-12T02:51:31.980Z,65.81
2017-05-12T02:52:41.702Z,66
2017-05-12T02:53:52.082Z,65.71
2017-05-12T02:55:02.441Z,65.71
2017-05-12T02:56:12.182Z,65.71
2017-05-12T02:57:22.543Z,65.81
2017-05-12T02:58:32.878Z,65.71
2017-05-12T02:59:43.229Z,66.38
2017-05-12T03:00:53.580Z,66.48
2017-05-12T03:32:45.864Z,63.73
2017-05-12T03:33:55.901Z,64.09
2017-05-12T03:35:05.942Z,65.42
2017-05-12T03:36:15.968Z,65.9
2017-05-12T03:37:26.029Z,66.47
2017-05-12T03:38:36.367Z,66.66
2017-05-12T03:39:46.730Z,67.27
2017-05-12T03:40:57.111Z,67.18
2017-05-12T03:42:07.452Z,66.89
2017-05-12T03:43:17.807Z,67.18
2017-05-12T03:44:27.585Z,67.3
2017-05-12T03:45:37.628Z,67.21
2017-05-12T03:46:47.972Z,67.4
2017-05-12T03:47:58.317Z,67.3
2017-05-12T03:49:08.363Z,67.24
2017-05-12T03:50:18.712Z,67.05
2017-05-12T03:51:29.087Z,67.24
2017-05-12T03:52:39.462Z,66.61
2017-05-12T03:53:49.808Z,66.61
2017-05-12T03:55:00.159Z,66.32
2017-05-12T03:56:10.503Z,66.51
2017-05-12T03:57:20.553Z,66.83
2017-05-12T03:58:30.920Z,66.64
2017-05-12T03:59:40.955Z,66.35
2017-05-12T04:00:51.342Z,66.35
2017-05-12T04:02:01.443Z,66.06
2017-05-12T04:03:11.497Z,65.68
2017-05-12T04:04:21.862Z,66
2017-05-12T04:05:32.217Z,66.48
2017-05-12T04:06:42.564Z,65.52
2017-05-12T04:07:52.601Z,65.71
2017-05-12T04:09:02.638Z,65.75
2017-05-12T04:10:13.006Z,65.75
2017-05-12T04:11:23.373Z,65.55
2017-05-12T04:12:33.724Z,65.94
2017-05-12T04:13:44.116Z,65.46
2017-05-12T04:14:54.476Z,65.65
2017-05-12T04:16:04.508Z,65.75
2017-05-12T04:17:14.555Z,65.55
2017-05-12T04:18:24.896Z,65.65
2017-05-12T04:19:35.263Z,65.78
2017-05-12T04:20:45.301Z,65.39
2017-05-12T04:21:55.331Z,65.49
2017-05-12T04:23:05.692Z,65.39
2017-05-12T04:24:16.052Z,65.68
2017-05-12T04:25:26.409Z,65.68
2017-05-12T04:26:36.775Z,65.72
2017-05-12T04:27:46.820Z,65.52
2017-05-12T04:28:56.925Z,65.23
2017-05-12T04:30:07.274Z,65.05
2017-05-12T04:31:17.016Z,65.08
2017-05-12T04:32:27.069Z,65.33
2017-05-12T04:33:37.425Z,64.59
2017-05-12T04:34:47.778Z,64.5
2017-05-12T04:35:58.134Z,64.31
2017-05-12T04:37:07.873Z,64.53
2017-05-12T04:38:17.919Z,64.72
2017-05-12T04:39:28.312Z,64.63
2017-05-12T04:40:38.686Z,64.43
2017-05-12T04:41:48.717Z,64.34
2017-05-12T04:42:59.065Z,63.79
2017-05-12T04:44:09.434Z,64.09
2017-05-12T04:45:19.469Z,63.06
2017-05-12T04:46:29.825Z,62.32
2017-05-12T04:47:40.216Z,61.8
2017-05-12T04:48:50.587Z,60.52
2017-05-12T04:50:00.936Z,60.55
2017-05-12T04:51:11.310Z,60.31
2017-05-12T04:52:21.722Z,59.48
2017-05-12T04:53:32.085Z,59.7
2017-05-12T04:54:41.827Z,60.31
2017-05-12T04:55:51.870Z,59.76
2017-05-12T04:57:01.919Z,60.37
2017-05-12T04:58:12.269Z,60.57
2017-05-12T04:59:22.620Z,60.4
2017-05-12T05:00:32.981Z,61.08
2017-05-12T05:01:43.337Z,61.27
2017-05-12T05:02:53.704Z,61.56
2017-05-12T05:04:04.068Z,61.95
2017-05-12T05:05:14.103Z,62.98
2017-05-12T05:06:24.519Z,63.46
2017-05-12T05:07:34.878Z,63.92
2017-05-12T05:08:45.248Z,64.56
2017-05-12T05:09:55.349Z,65.11
2017-05-12T05:11:05.716Z,65.27
2017-05-12T05:12:16.062Z,65.66
2017-05-12T05:13:26.106Z,66.11
2017-05-12T05:14:36.468Z,65.91
2017-05-12T05:15:46.853Z,65.63
2017-05-12T05:16:57.211Z,65.34
2017-05-12T05:18:07.324Z,65.63
2017-05-12T05:19:17.378Z,64.95
2017-05-12T05:20:27.735Z,65.14
2017-05-12T05:21:38.094Z,64.79
2017-05-12T05:22:48.446Z,63.63
2017-05-12T05:23:58.863Z,62.4
2017-05-12T05:25:09.276Z,62.92
2017-05-12T05:26:19.655Z,63.85
2017-05-12T05:27:29.704Z,64.05
2017-05-12T05:28:39.763Z,64.24
2017-05-12T05:29:50.123Z,64.79
2017-05-12T05:31:00.491Z,64.31
2017-05-12T05:32:10.534Z,64.59
2017-05-12T05:33:20.258Z,65.27
2017-05-12T05:34:29.687Z,64.95
2017-05-12T05:35:40.044Z,64.95
2017-05-12T05:36:50.401Z,65.05
2017-05-12T05:38:00.751Z,64.98
2017-05-12T05:39:11.104Z,64.59
2017-05-12T05:40:21.137Z,64.4
2017-05-12T05:41:31.497Z,64.11
2017-05-12T05:42:41.840Z,63.73
2017-05-12T05:43:52.198Z,62.98
2017-05-12T05:45:02.241Z,61.5
2017-05-12T05:46:12.581Z,60.69
2017-05-12T05:47:22.944Z,60.17
2017-05-12T05:48:33.310Z,60.58
2017-05-12T05:49:43.354Z,60.78
2017-05-12T05:50:53.745Z,60.71
2017-05-12T05:52:04.091Z,61.46
2017-05-12T05:53:14.180Z,61.36
2017-05-12T05:54:24.218Z,61.07
2017-05-12T05:55:34.586Z,60.81
2017-05-12T05:56:44.955Z,60.84
2017-05-12T05:57:54.998Z,61.42
2017-05-12T05:59:05.410Z,62.46
2017-05-12T06:00:15.763Z,62.52
2017-05-12T06:01:26.131Z,62.62
2017-05-12T06:02:36.470Z,63.2
2017-05-12T06:03:46.838Z,64.04
2017-05-12T06:04:56.891Z,63.85
2017-05-12T06:06:07.244Z,64.5
2017-05-12T06:07:17.290Z,64.5
2017-05-12T06:08:27.656Z,64.59
2017-05-12T06:09:38.076Z,64.75
2017-05-12T06:10:48.433Z,64.75
2017-05-12T06:11:58.794Z,64.47
2017-05-12T06:13:08.839Z,64.75
2017-05-12T06:14:19.197Z,64.56
2017-05-12T06:15:29.570Z,64.27
2017-05-12T06:16:39.924Z,63.98
2017-05-12T06:17:50.290Z,63.79
2017-05-12T06:19:00.386Z,63.92
2017-05-12T06:20:10.740Z,64.11
2017-05-12T06:21:20.785Z,63.92
2017-05-12T06:22:31.138Z,64.01
2017-05-12T06:23:41.190Z,64.01
2017-05-12T06:24:51.546Z,63.62
2017-05-12T06:26:01.615Z,63.92
2017-05-12T06:27:11.645Z,64.01
2017-05-12T06:28:21.750Z,63.72
2017-05-12T06:29:32.114Z,64.01
2017-05-12T06:30:42.475Z,63.92
2017-05-12T06:31:52.845Z,64.01
2017-05-12T06:33:03.226Z,63.82
2017-05-12T06:34:13.639Z,63.92
2017-05-12T06:35:23.727Z,63.92
2017-05-12T06:36:34.150Z,63.82
2017-05-12T06:37:44.208Z,63.53
2017-05-12T06:38:54.293Z,64.11
2017-05-12T06:40:04.721Z,63.92
2017-05-12T06:41:15.079Z,64.11
2017-05-12T06:42:25.433Z,63.62
2017-05-12T06:43:35.486Z,64.01
2017-05-12T06:44:45.858Z,63.72
2017-05-12T06:45:55.905Z,63.04
2017-05-12T06:47:06.274Z,63.17
2017-05-12T06:48:16.643Z,63.37
2017-05-12T06:49:27.015Z,63.17
2017-05-12T06:50:37.400Z,62.69
2017-05-12T06:51:47.750Z,62.79
2017-05-12T06:52:57.880Z,62.62
2017-05-12T06:54:08.283Z,63.2
2017-05-12T06:55:18.660Z,63.2
2017-05-12T06:56:29.019Z,62.62
2017-05-12T06:57:39.092Z,62.91
2017-05-12T06:58:49.466Z,63.01
2017-05-12T06:59:59.847Z,62.62
2017-05-12T07:01:09.889Z,63.2
2017-05-12T07:02:19.944Z,63.59
2017-05-12T07:03:30.359Z,63.4
2017-05-12T07:04:40.732Z,63.98
2017-05-12T07:05:51.109Z,63.85
2017-05-12T07:07:01.487Z,64.04
2017-05-12T07:08:11.849Z,63.85
2017-05-12T07:09:22.230Z,63.56
2017-05-12T07:10:32.602Z,63.95
2017-05-12T07:11:42.965Z,63.85
2017-05-12T07:12:53.342Z,63.95
2017-05-12T07:14:03.714Z,63.85
2017-05-12T07:15:13.764Z,62.82
2017-05-12T07:16:24.127Z,63.1
2017-05-12T07:17:34.512Z,61.98
2017-05-12T07:18:44.905Z,61.71
2017-05-12T07:19:55.000Z,61.55
2017-05-12T07:21:05.058Z,60.9
2017-05-12T07:22:15.426Z,61.29
2017-05-12T07:23:25.469Z,61.29
2017-05-12T07:24:35.547Z,61.38
2017-05-12T07:25:45.940Z,61.48
2017-05-12T07:26:56.319Z,61.9
2017-05-12T07:28:06.391Z,61.9
2017-05-12T07:29:16.435Z,62.77
2017-05-12T07:30:26.491Z,62.58
2017-05-12T07:31:36.546Z,62.26
2017-05-12T07:32:46.649Z,62.74
2017-05-12T07:33:56.394Z,62.94
2017-05-12T07:35:06.745Z,63.13
2017-05-12T07:36:17.102Z,62.84
2017-05-12T07:37:27.493Z,63.01
2017-05-12T07:38:37.934Z,63.13
2017-05-12T07:39:48.003Z,63.04
2017-05-12T07:40:57.768Z,63.13
2017-05-12T07:42:08.136Z,62.74
2017-05-12T07:43:18.524Z,62.71
2017-05-12T07:44:28.953Z,63.04
2017-05-12T07:45:39.387Z,63.23
2017-05-12T07:46:49.453Z,62.74
2017-05-12T07:47:59.829Z,62.84
2017-05-12T07:49:10.198Z,62.77
2017-05-12T07:50:20.301Z,62.29
2017-05-12T07:51:30.689Z,62.29
2017-05-12T07:52:41.043Z,61.44
2017-05-12T07:53:51.419Z,61.54
2017-05-12T07:55:01.811Z,61.28
2017-05-12T07:56:12.170Z,61.21
2017-05-12T07:57:22.531Z,61.9
2017-05-12T07:58:32.280Z,61.51
2017-05-12T07:59:42.356Z,61.31
2017-05-12T08:00:52.712Z,61.8
2017-05-12T08:02:03.114Z,61.9
2017-05-12T08:03:13.497Z,61.99
2017-05-12T08:04:23.882Z,61.99
2017-05-12T08:05:34.252Z,61.9
2017-05-12T08:06:44.646Z,61.93
2017-05-12T08:07:55.160Z,61.73
2017-05-12T08:09:04.911Z,61.93
2017-05-12T08:10:15.306Z,61.54
2017-05-12T08:11:25.680Z,61.93
2017-05-12T08:12:36.249Z,61.93
2017-05-12T08:13:46.620Z,62.32
2017-05-12T08:14:57.036Z,62.6
2017-05-12T08:58:02.645Z,63.12
2017-05-12T08:59:13.028Z,63.32
2017-05-12T09:00:23.092Z,63.22
2017-05-12T09:01:33.466Z,63.06
2017-05-12T09:02:43.572Z,63.06
2017-05-12T09:03:53.967Z,62.96
2017-05-12T09:05:04.353Z,63.54
2017-05-12T09:06:14.703Z,63.35
2017-05-12T09:07:25.091Z,63.06
2017-05-12T09:08:35.439Z,63.15
2017-05-12T09:09:45.809Z,62.7
2017-05-12T09:10:56.187Z,62.79
2017-05-12T09:12:06.542Z,63.18
2017-05-12T09:13:36.102Z,62.6
2017-05-12T09:14:46.472Z,62.05
2017-05-12T09:15:56.837Z,61.79
2017-05-12T09:17:07.319Z,62.56
2017-05-12T09:18:17.912Z,63.12
2017-05-12T09:19:28.114Z,63.51
2017-05-12T09:20:38.545Z,63.38
2017-05-12T09:21:49.023Z,63.28
2017-05-12T09:22:59.386Z,63.38
2017-05-12T09:24:09.833Z,63.38
2017-05-12T09:25:19.243Z,63.21
2017-05-12T09:26:29.600Z,63.02
2017-05-12T09:27:39.657Z,62.63
2017-05-12T09:28:50.040Z,61.79
2017-05-12T09:30:00.418Z,61.13
2017-05-12T09:31:10.819Z,61.06
2017-05-12T09:32:21.219Z,60.89
2017-05-12T09:33:31.278Z,60.24
2017-05-12T09:34:41.653Z,60.86
2017-05-12T09:35:52.026Z,60.86
2017-05-12T09:37:02.384Z,61.25
2017-05-12T09:38:12.771Z,61.05
2017-05-12T09:39:23.139Z,61.35
2017-05-12T09:40:32.892Z,61.15
2017-05-12T09:41:43.259Z,61.38
2017-05-12T09:42:53.611Z,61.51
2017-05-12T09:44:03.361Z,61.41
2017-05-12T09:45:13.742Z,61.57
2017-05-12T09:46:23.474Z,61.28
2017-05-12T09:47:33.549Z,61.38
2017-05-12T09:48:43.602Z,61.31
2017-05-12T09:49:53.970Z,61.51
2017-05-12T09:51:04.342Z,61.99
2017-05-12T09:52:14.709Z,62.06
2017-05-12T09:53:24.746Z,62.16
2017-05-12T09:54:34.797Z,61.57
2017-05-12T09:55:44.860Z,61.57
2017-05-12T09:56:54.913Z,61.67
2017-05-12T09:58:05.295Z,61.67
2017-05-12T09:59:15.685Z,61.31
2017-05-12T10:00:26.070Z,61.6
2017-05-12T10:01:36.448Z,61.7
2017-05-12T10:02:46.505Z,61.9
2017-05-12T10:03:56.261Z,61.41
2017-05-12T10:05:06.641Z,61.51
2017-05-12T10:06:17.002Z,61.31
2017-05-12T10:07:27.065Z,61.31
2017-05-12T10:08:37.127Z,61.11
2017-05-12T10:09:47.528Z,61.31
2017-05-12T10:10:57.916Z,61.02
2017-05-12T10:12:07.654Z,61.41
2017-05-12T10:13:18.025Z,61.41
2017-05-12T10:14:28.373Z,61.51
2017-05-12T10:15:38.736Z,61.21
2017-05-12T10:16:49.097Z,61.31
2017-05-12T10:17:59.135Z,61.21
2017-05-12T10:19:09.505Z,61.18
2017-05-12T10:20:19.893Z,61.96
2017-05-12T10:21:30.267Z,61.77
2017-05-12T10:22:40.340Z,61.96
2017-05-12T10:23:50.703Z,61.93
2017-05-12T10:25:01.067Z,61.83
2017-05-12T10:26:11.415Z,61.74
2017-05-12T10:27:21.466Z,61.93
2017-05-12T10:28:31.521Z,61.64
2017-05-12T10:29:41.889Z,61.25
2017-05-12T10:30:51.941Z,61.44
2017-05-12T10:32:01.984Z,61.32
2017-05-12T10:33:11.754Z,61.8
2017-05-12T10:34:22.127Z,61.77
2017-05-12T10:35:32.495Z,61.58
2017-05-12T10:36:42.849Z,61.19
2017-05-12T10:37:53.238Z,60.89
2017-05-12T10:39:03.614Z,61.68
2017-05-12T10:40:13.676Z,61.58
2017-05-12T10:41:24.057Z,61.32
2017-05-12T10:42:34.425Z,61.22
2017-05-12T10:43:44.852Z,61.22
2017-05-12T10:44:55.224Z,61.35
2017-05-12T10:46:05.301Z,61.54
2017-05-12T10:47:15.355Z,61.35
2017-05-12T10:48:25.725Z,60.57
2017-05-12T10:49:36.111Z,60.86
2017-05-12T10:50:46.487Z,61.08
2017-05-12T10:51:56.836Z,60.99
2017-05-12T10:53:06.576Z,60.69
2017-05-12T10:54:16.704Z,61.11
2017-05-12T10:55:27.089Z,60.72
2017-05-12T10:56:37.162Z,61.31
2017-05-12T10:57:47.610Z,61.11
2017-05-12T10:58:57.687Z,61.41
2017-05-12T11:00:08.106Z,61.96
2017-05-12T11:01:18.488Z,62.03
2017-05-12T11:02:28.865Z,62.19
2017-05-12T11:03:39.226Z,62.16
2017-05-12T11:04:49.635Z,61.87
2017-05-12T11:06:00.005Z,61.8
2017-05-12T11:07:10.372Z,62.66
2017-05-12T11:08:20.754Z,62.82
2017-05-12T11:09:30.797Z,63.18
2017-05-12T11:10:41.159Z,63.93
2017-05-12T11:11:51.501Z,64.39
2017-05-12T11:13:01.869Z,64.94
2017-05-12T11:14:11.926Z,64.52
2017-05-12T11:15:21.676Z,64.69
2017-05-12T11:16:31.746Z,65.23
2017-05-12T11:17:42.122Z,64.45
2017-05-12T11:18:52.195Z,64.55
2017-05-12T11:20:02.266Z,64.94
2017-05-12T11:21:12.628Z,65.2
2017-05-12T11:22:23.003Z,64.91
2017-05-12T11:23:33.040Z,64.62
2017-05-12T11:24:43.412Z,64.29
2017-05-12T11:25:53.759Z,64.32
2017-05-12T11:27:04.152Z,64.04
2017-05-12T11:28:14.205Z,62.6
2017-05-12T11:29:24.579Z,63.12
2017-05-12T11:30:34.960Z,62.54
2017-05-12T11:31:45.027Z,62.44
2017-05-12T11:32:55.398Z,61.99
2017-05-12T11:34:05.465Z,62.96
2017-05-12T11:35:15.505Z,62.47
2017-05-12T11:36:25.559Z,62.57
2017-05-12T11:37:35.932Z,62.76
2017-05-12T11:38:46.336Z,62.18
2017-05-12T11:39:56.707Z,62.38
2017-05-12T11:41:06.782Z,62.28
2017-05-12T11:42:16.867Z,61.69
2017-05-12T11:43:27.246Z,61.27
2017-05-12T11:44:37.625Z,61.49
2017-05-12T11:45:47.684Z,61.76
2017-05-12T11:46:58.033Z,61.69
2017-05-12T11:48:08.085Z,61.2
2017-05-12T11:49:18.127Z,61.04
2017-05-12T11:50:28.526Z,61.62
2017-05-12T11:51:38.895Z,61.13
2017-05-12T11:52:48.945Z,61.35
2017-05-12T11:53:59.309Z,61.16
2017-05-12T11:55:09.680Z,60.86
2017-05-12T11:56:19.963Z,61.06
2017-05-12T11:57:30.363Z,61.09
2017-05-12T11:58:40.778Z,61.19
2017-05-12T11:59:51.142Z,61.48
2017-05-12T12:01:01.188Z,61.09
2017-05-12T12:02:11.256Z,61.29
2017-05-12T12:03:21.607Z,61.12
2017-05-12T12:04:31.980Z,61.12
2017-05-12T12:05:41.721Z,61.22
2017-05-12T12:06:52.316Z,61.32
2017-05-12T12:08:02.712Z,61.22
2017-05-12T12:09:13.092Z,61.64
2017-05-12T12:10:23.497Z,61.15
2017-05-12T12:11:33.920Z,60.96
2017-05-12T12:12:43.706Z,60.99
2017-05-12T12:13:54.078Z,60.79
2017-05-12T12:15:04.427Z,60.99
2017-05-12T12:16:14.804Z,61.21
2017-05-12T12:17:25.181Z,61.38
2017-05-12T12:18:34.915Z,61.18
2017-05-12T12:19:45.303Z,61.18
2017-05-12T12:20:55.685Z,61.18
2017-05-12T12:22:06.057Z,61.08
2017-05-12T12:23:16.457Z,61.28
2017-05-12T12:24:26.825Z,61.15
2017-05-12T12:25:37.182Z,61.18
2017-05-12T12:26:47.533Z,61.47
2017-05-12T12:27:57.589Z,61.28
2017-05-12T12:29:08.000Z,61.38
2017-05-12T12:30:18.374Z,61.25
2017-05-12T12:31:28.746Z,61.93
2017-05-12T12:32:38.499Z,61.83
2017-05-12T12:33:48.607Z,61.22
2017-05-12T12:34:58.989Z,61.25
2017-05-12T12:36:09.371Z,61.44
2017-05-12T12:37:19.763Z,61.15
2017-05-12T12:38:29.823Z,60.47
2017-05-12T12:39:39.894Z,60.5
2017-05-12T12:40:49.960Z,60.13
2017-05-12T12:41:59.711Z,59.67
2017-05-12T12:43:09.780Z,58.75
2017-05-12T12:44:20.157Z,58.68
2017-05-12T12:45:30.532Z,59
2017-05-12T12:46:40.918Z,59.2
2017-05-12T12:47:51.291Z,60.25
2017-05-12T12:49:01.343Z,61.1
2017-05-12T12:50:11.706Z,61.47
2017-05-12T12:51:22.085Z,61.44
2017-05-12T12:52:32.447Z,61.51
2017-05-12T12:53:42.805Z,61.02
2017-05-12T12:54:53.194Z,61.99
2017-05-12T12:56:03.559Z,62.09
2017-05-12T12:57:13.920Z,62.26
2017-05-12T12:58:23.984Z,61.93
2017-05-12T12:59:34.339Z,62.82
2017-05-12T13:00:44.721Z,62.79
2017-05-12T13:01:55.132Z,62.95
2017-05-12T13:03:05.500Z,62.85
2017-05-12T13:04:15.559Z,62.66
2017-05-12T13:05:25.614Z,62.63
2017-05-12T13:06:35.984Z,62.82
2017-05-12T13:07:46.031Z,62.92
2017-05-12T13:08:55.781Z,62.73
2017-05-12T13:10:06.151Z,62.63
2017-05-12T13:11:16.541Z,62.04
2017-05-12T13:12:26.953Z,61.68
2017-05-12T13:13:37.029Z,62.66
2017-05-12T13:14:47.385Z,62.6
2017-05-12T13:15:57.773Z,63.02
2017-05-12T13:17:08.157Z,63.18
2017-05-12T13:18:18.534Z,63.05
2017-05-12T13:19:28.606Z,62.37
2017-05-12T13:20:38.998Z,62.3
2017-05-12T13:21:49.424Z,61.84
2017-05-12T13:22:59.479Z,61.74
2017-05-12T13:24:09.845Z,62.04
2017-05-12T13:25:20.220Z,62.53
2017-05-12T13:26:30.591Z,62.73
2017-05-12T13:27:40.649Z,62.7
2017-05-12T13:28:51.032Z,62.99
2017-05-12T13:30:01.076Z,62.95
2017-05-12T13:31:11.524Z,63.41
2017-05-12T13:32:21.280Z,63.12
2017-05-12T13:33:31.335Z,63.41
2017-05-12T13:34:41.380Z,63.02
2017-05-12T13:35:51.740Z,63.21
2017-05-12T13:37:01.806Z,62.99
2017-05-12T13:38:11.869Z,62.89
2017-05-12T13:39:22.230Z,63.48
2017-05-12T13:40:32.604Z,63.38
2017-05-12T13:41:42.658Z,63.31
2017-05-12T13:42:52.419Z,63.12
2017-05-12T13:44:02.794Z,63.02
2017-05-12T13:45:13.166Z,64.19
2017-05-12T13:46:23.583Z,64.42
2017-05-12T13:47:33.957Z,65.17
2017-05-12T13:48:44.325Z,65.33
2017-05-12T13:49:54.696Z,65.72
2017-05-12T13:51:05.107Z,65.43
2017-05-12T13:52:15.161Z,65.59
2017-05-12T13:53:25.525Z,65.69
2017-05-12T13:54:35.892Z,65.59
2017-05-12T13:55:46.263Z,65.37
2017-05-12T13:56:56.630Z,65.08
2017-05-12T13:58:07.023Z,64.13
2017-05-12T13:59:17.405Z,64.36
2017-05-12T14:00:27.776Z,64.36
2017-05-12T14:01:38.209Z,64.72
2017-05-12T14:02:48.584Z,64.49
2017-05-12T14:03:58.967Z,64.23
2017-05-12T14:05:09.350Z,62.9
2017-05-12T14:06:19.756Z,63.32
2017-05-12T14:07:30.125Z,64.36
2017-05-12T14:08:40.513Z,64.26
2017-05-12T14:09:50.896Z,64.17
2017-05-12T14:11:00.953Z,64.45
2017-05-12T14:12:11.340Z,64.42
2017-05-12T14:13:21.706Z,64.42
2017-05-12T14:14:32.137Z,65.01
2017-05-12T14:15:42.193Z,65.08
2017-05-12T14:16:52.250Z,65.3
2017-05-12T14:18:02.320Z,65.3
2017-05-12T14:19:12.690Z,64.81
2017-05-12T14:20:22.426Z,64.52
2017-05-12T14:21:32.484Z,64.62
2017-05-12T14:22:42.857Z,64.23
2017-05-12T14:23:53.256Z,64.23
2017-05-12T14:25:03.615Z,64.42
2017-05-12T14:26:13.981Z,64.32
2017-05-12T14:27:24.335Z,64.23
2017-05-12T14:28:34.699Z,64.42
2017-05-12T14:29:45.297Z,64.23
2017-05-12T14:30:55.660Z,64.13
2017-05-12T14:32:06.044Z,64.17
2017-05-12T14:33:16.405Z,64.07
2017-05-12T14:34:26.781Z,63.97
2017-05-12T14:35:36.848Z,63.48
2017-05-12T14:36:47.229Z,63.29
2017-05-12T14:37:57.588Z,63.58
2017-05-12T14:39:07.370Z,63.78
2017-05-12T14:40:16.806Z,63.22
2017-05-12T14:41:26.868Z,62.54
2017-05-12T14:42:37.238Z,62.41
2017-05-12T14:43:47.327Z,61.66
2017-05-12T14:44:57.718Z,62.24
2017-05-12T14:46:08.081Z,62.53
2017-05-12T14:47:18.473Z,62.82
2017-05-12T14:48:28.528Z,62.6
2017-05-12T14:49:38.926Z,62.82
2017-05-12T14:50:49.205Z,63.12
2017-05-12T14:51:59.586Z,63.12
2017-05-12T14:53:09.952Z,63.51
2017-05-12T14:54:20.334Z,63.8
2017-05-12T14:55:30.698Z,64.06
2017-05-12T14:56:40.474Z,64.42
2017-05-12T14:57:50.837Z,64.32
2017-05-12T14:59:01.215Z,64.78
2017-05-12T15:00:11.282Z,64.97
2017-05-12T15:01:21.350Z,65.14
2017-05-12T15:02:31.739Z,65.14
2017-05-12T15:03:41.490Z,65.11
2017-05-12T15:04:51.556Z,65.11
2017-05-12T15:06:01.935Z,65.5
2017-05-12T15:07:12.297Z,65.27
2017-05-12T15:08:22.661Z,65.17
2017-05-12T15:09:32.745Z,65.08
2017-05-12T15:10:43.136Z,64.98
2017-05-12T15:11:53.195Z,64.59
2017-05-12T15:13:03.245Z,65.08
2017-05-12T15:14:13.321Z,64.69
2017-05-12T15:15:23.685Z,64.78
2017-05-12T15:16:34.051Z,64.1
2017-05-12T15:17:44.421Z,64.32
2017-05-12T15:18:54.798Z,63.35
2017-05-12T15:20:05.176Z,62.6
2017-05-12T15:21:14.915Z,62.54
2017-05-12T15:22:25.280Z,61.6
2017-05-12T15:23:35.036Z,61.63
2017-05-12T15:24:45.118Z,61.46
2017-05-12T15:25:54.534Z,61.66
2017-05-12T15:27:04.931Z,61.85
2017-05-12T15:28:14.977Z,61.59
2017-05-12T15:29:25.334Z,61.69
2017-05-12T15:30:35.367Z,62.08
2017-05-12T15:31:45.108Z,62.47
2017-05-12T15:32:55.512Z,63.02
2017-05-12T15:34:05.875Z,63.12
2017-05-12T15:35:16.284Z,63.57
2017-05-12T15:36:26.658Z,64.16
2017-05-12T15:37:37.036Z,64.32
2017-05-12T15:38:47.404Z,64.42
2017-05-12T15:39:57.534Z,64.42
2017-05-12T15:41:07.606Z,64.2
2017-05-12T15:42:17.983Z,64.29
2017-05-12T15:43:28.387Z,64.03
2017-05-12T15:44:38.962Z,63.06
2017-05-12T15:45:49.026Z,63.54
2017-05-12T15:46:59.062Z,63.48
2017-05-12T15:48:09.443Z,62.89
2017-05-12T15:49:19.825Z,63.21
2017-05-12T15:50:29.879Z,63.21
2017-05-12T15:51:40.267Z,63.02
2017-05-12T15:52:50.326Z,63.57
2017-05-12T15:54:00.716Z,64.32
2017-05-12T15:55:11.094Z,64.32
2017-05-12T15:56:21.442Z,64.29
2017-05-12T15:57:31.805Z,64.39
2017-05-12T15:58:42.379Z,64.78
2017-05-12T15:59:52.437Z,64.65
2017-05-12T16:01:02.492Z,64.84
2017-05-12T16:02:12.279Z,65.23
2017-05-12T16:03:22.634Z,65.4
2017-05-12T16:04:32.704Z,65.59
2017-05-12T16:05:43.083Z,65.5
2017-05-12T16:06:53.137Z,65.56
2017-05-12T16:08:03.492Z,65.56
2017-05-12T16:09:13.854Z,65.37
2017-05-12T16:10:24.129Z,65.37
2017-05-12T16:11:34.513Z,65.66
2017-05-12T16:12:44.901Z,65.14
2017-05-12T16:13:54.949Z,65.33
2017-05-12T16:15:05.350Z,64.95
2017-05-12T16:16:15.731Z,65.4
2017-05-12T16:17:25.492Z,65.3
2017-05-12T16:18:35.557Z,65.4
2017-05-12T16:19:45.925Z,65.47
2017-05-12T16:20:55.963Z,65.56